LiveATC.Net - Listen to live air traffic control over the Internet! Contact LiveATC.net for advertising information


ICAO: LPCS  IATA: XXC   Airport: Cascais Municipal Aerodrome
City: Cascais
Country: Portugal   Continent: Europe
LPPT METAR Weather: LPPT 231300Z 34013KT 300V360 9999 FEW030 25/15 Q1014
LPCS Flight Activity (FlightAware)
LPCS Tower
Feed Status: DOWN
Last heard on: 2014-02-17 03:14:03 (156 days 10 hours 43 minutes ago)
LPCS Tower Audio Archives
FacilityFrequency
Cascais Tower120.300


NOTICE

Unauthorized use prohibited. See LiveATC.net Terms of Service


Find LiveATC Audio Streams


Airport/ARTCC Code

Frequency
(e.g., 124.400, 128.75)
Site-wide search

Browse LiveATC Feeds
LiveATC Coverage Map
Top 50 LiveATC Feeds
Bad Weather Areas

LiveATC FAQ
Offer a LiveATC Feed
Contact LiveATC.net
Press Inquiries

LiveATC on iPhone
LiveATC on Android

LiveATC Mobile
(Mobile browser)

ATC Audio Archives
Interesting Recordings

LiveATC Forums


Home Page
About LiveATC.net
Make a Donation
LiveATC Bookstore

Terms of Use
Privacy Policy

ATC/Radar Sites
U.S. ARTCC Freqs
Canadian Air Freqs

AIRMETs/SIGMETs

FAA Airport Status
Nat'l Airspace Status
Arrival Demand Charts


Server Software By:
Icecast.org
Liquidsoap

Please make a donation to help us keep growing!